Time;durP1;ratioP1;P1;durP2;ratioP2;P2;SDS_P1;SDS_P2;PMS_P1;PMS_P2;Temp;Humidity;BMP_temperature;BMP_pressure;BME280_temperature;BME280_humidity;BME280_pressure;Samples;Min_cycle;Max_cycle;Signal;HPM_P1;HPM_P2
2021/12/17 00:00:44;;;;;;;;;;;8.20;90.40;;;;;;5023572;28;20058;-61
2021/12/17 00:03:16;;;;;;;;;;;8.10;90.50;;;;;;5006838;28;19924;-61
2021/12/17 00:08:10;;;;;;;;;;;8.10;90.50;;;;;;5007634;28;20294;-61
2021/12/17 00:10:36;;;;;;;;;;;8.10;90.40;;;;;;5006151;28;19932;-61
2021/12/17 00:13:01;;;;;;;;;;;8.10;90.40;;;;;;5006283;28;19913;-63
2021/12/17 00:15:26;;;;;;;;;;;8.10;90.30;;;;;;5006066;28;20281;-61
2021/12/17 00:17:59;;;;;;;;;;;8.10;90.30;;;;;;5006716;28;19925;-61
2021/12/17 00:53:10;;;;;;;;;;;8.00;90.30;;;;;;5022023;28;19983;-61
2021/12/17 00:55:35;;;;;;;;;;;7.90;90.60;;;;;;5005869;28;20331;-61
2021/12/17 00:58:00;;;;;;;;;;;8.00;90.30;;;;;;5006193;28;20369;-61
2021/12/17 01:00:26;;;;;;;;;;;7.90;90.30;;;;;;4988931;28;19944;-61
2021/12/17 01:02:51;;;;;;;;;;;7.90;90.30;;;;;;4989129;28;19917;-61
2021/12/17 01:05:19;;;;;;;;;;;7.90;90.20;;;;;;5022677;28;19933;-61
2021/12/17 01:07:46;;;;;;;;;;;7.90;90.20;;;;;;5005300;28;19913;-61
2021/12/17 01:10:13;;;;;;;;;;;7.90;90.20;;;;;;5021262;28;19913;-61
2021/12/17 01:12:38;;;;;;;;;;;7.90;90.10;;;;;;5022152;28;19928;-61
2021/12/17 01:15:04;;;;;;;;;;;7.90;90.20;;;;;;5006565;28;19917;-61
2021/12/17 01:17:32;;;;;;;;;;;7.90;90.20;;;;;;5005330;28;19944;-61
2021/12/17 01:25:13;;;;;;;;;;;7.80;90.20;;;;;;5006886;28;19976;-61
2021/12/17 01:35:51;;;;;;;;;;;7.80;90.20;;;;;;5008714;28;19924;-61
2021/12/17 01:39:21;;;;;;;;;;;7.70;90.20;;;;;;5004869;28;19913;-61
2021/12/17 01:41:41;;;;;;;;;;;7.70;90.20;;;;;;5021583;28;19979;-61
2021/12/17 01:43:59;;;;;;;;;;;7.70;90.20;;;;;;5022047;28;19921;-61
2021/12/17 01:46:26;;;;;;;;;;;7.70;90.30;;;;;;5004869;28;20400;-61
2021/12/17 01:59:17;;;;;;;;;;;7.70;90.40;;;;;;5021141;28;19920;-61
2021/12/17 01:59:41;;;;;;;;;;;7.70;90.40;;;;;;5006455;28;19927;-60
2021/12/17 02:02:07;;;;;;;;;;;7.70;90.50;;;;;;5018594;28;19917;-61
2021/12/17 02:04:33;;;;;;;;;;;7.70;90.40;;;;;;4987756;28;20364;-61
2021/12/17 02:06:58;;;;;;;;;;;7.70;90.50;;;;;;4988268;28;20517;-61
2021/12/17 02:20:28;;;;;;;;;;;7.70;90.40;;;;;;5008585;28;20067;-61
2021/12/17 02:31:04;;;;;;;;;;;7.70;90.60;;;;;;5021048;28;20926;-61
2021/12/17 02:33:30;;;;;;;;;;;7.70;90.60;;;;;;5003316;28;19913;-61
2021/12/17 02:35:55;;;;;;;;;;;7.60;90.60;;;;;;5005251;28;20288;-61
2021/12/17 02:38:21;;;;;;;;;;;7.60;90.60;;;;;;4988427;28;19917;-61
2021/12/17 02:46:15;;;;;;;;;;;7.60;90.60;;;;;;5007228;28;19928;-61
2021/12/17 02:48:41;;;;;;;;;;;7.60;90.60;;;;;;5004885;28;20309;-61
2021/12/17 02:51:06;;;;;;;;;;;7.60;90.60;;;;;;5004072;28;19913;-61
2021/12/17 02:53:32;;;;;;;;;;;7.60;90.60;;;;;;5021172;28;19921;-61
2021/12/17 02:55:59;;;;;;;;;;;7.60;90.70;;;;;;5004778;28;19921;-61
2021/12/17 02:58:28;;;;;;;;;;;7.60;90.60;;;;;;5021007;28;19921;-61
2021/12/17 03:00:54;;;;;;;;;;;7.60;90.70;;;;;;5004611;28;19917;-62
2021/12/17 03:03:20;;;;;;;;;;;7.60;90.70;;;;;;4989739;28;20321;-61
2021/12/17 03:05:47;;;;;;;;;;;7.60;90.70;;;;;;5023178;28;19921;-61
2021/12/17 03:08:15;;;;;;;;;;;7.60;90.70;;;;;;5009110;28;19917;-61
2021/12/17 03:10:41;;;;;;;;;;;7.60;90.70;;;;;;5008811;28;20483;-61
2021/12/17 03:13:07;;;;;;;;;;;7.60;90.60;;;;;;5024212;28;19921;-61
2021/12/17 03:15:38;;;;;;;;;;;7.60;90.70;;;;;;5023323;28;19909;-61
2021/12/17 03:25:50;;;;;;;;;;;7.60;90.70;;;;;;5009248;28;20034;-61
2021/12/17 03:28:16;;;;;;;;;;;7.60;90.70;;;;;;5007478;28;19921;-61
2021/12/17 03:30:41;;;;;;;;;;;7.60;90.70;;;;;;5008079;28;20070;-61
2021/12/17 03:33:07;;;;;;;;;;;7.50;90.70;;;;;;5024263;28;19918;-61
2021/12/17 03:35:32;;;;;;;;;;;7.60;90.80;;;;;;5005780;28;19968;-61
2021/12/17 03:37:58;;;;;;;;;;;7.50;90.80;;;;;;5023532;28;20352;-61
2021/12/17 03:40:23;;;;;;;;;;;7.50;90.70;;;;;;5008817;28;20016;-61
2021/12/17 03:42:51;;;;;;;;;;;7.50;90.70;;;;;;5022584;28;19924;-61
2021/12/17 03:45:17;;;;;;;;;;;7.50;90.70;;;;;;5006990;28;20312;-61
2021/12/17 03:47:42;;;;;;;;;;;7.50;90.70;;;;;;5007875;28;20013;-61
2021/12/17 03:50:08;;;;;;;;;;;7.50;90.70;;;;;;5006383;28;19917;-61
2021/12/17 03:52:33;;;;;;;;;;;7.50;90.80;;;;;;5006823;28;20384;-61
2021/12/17 03:54:59;;;;;;;;;;;7.50;90.80;;;;;;5008642;28;20365;-61
2021/12/17 03:57:24;;;;;;;;;;;7.50;90.80;;;;;;4990702;28;19932;-61
2021/12/17 03:59:50;;;;;;;;;;;7.50;90.80;;;;;;5006340;28;19965;-61
2021/12/17 04:02:15;;;;;;;;;;;7.50;90.80;;;;;;5024517;28;19915;-61
2021/12/17 04:04:41;;;;;;;;;;;7.50;90.80;;;;;;5007896;28;19928;-61
2021/12/17 04:07:06;;;;;;;;;;;7.50;90.80;;;;;;5005484;28;19943;-61
2021/12/17 04:09:32;;;;;;;;;;;7.50;90.80;;;;;;4991054;28;19915;-61
2021/12/17 04:11:58;;;;;;;;;;;7.50;90.80;;;;;;5007933;28;20561;-61
2021/12/17 04:14:33;;;;;;;;;;;7.50;90.90;;;;;;5022358;28;20335;-61
2021/12/17 04:17:06;;;;;;;;;;;7.50;90.90;;;;;;5007332;28;19909;-61
2021/12/17 04:19:31;;;;;;;;;;;7.50;90.90;;;;;;4993364;28;19921;-61
2021/12/17 04:21:57;;;;;;;;;;;7.50;90.90;;;;;;5008307;28;20028;-61
2021/12/17 04:24:22;;;;;;;;;;;7.50;90.90;;;;;;4991003;28;19909;-61
2021/12/17 04:26:48;;;;;;;;;;;7.50;90.90;;;;;;4991115;28;20419;-61
2021/12/17 04:29:14;;;;;;;;;;;7.50;90.90;;;;;;5022398;28;19919;-61
2021/12/17 04:31:39;;;;;;;;;;;7.40;90.90;;;;;;5007802;28;20114;-61
2021/12/17 04:34:05;;;;;;;;;;;7.40;90.90;;;;;;5007099;28;19935;-61
2021/12/17 04:36:33;;;;;;;;;;;7.40;90.90;;;;;;5007381;28;19924;-61
2021/12/17 04:39:00;;;;;;;;;;;7.40;91.00;;;;;;5004431;28;20344;-61
2021/12/17 04:41:41;;;;;;;;;;;7.40;91.00;;;;;;5020947;28;19913;-61
2021/12/17 04:44:21;;;;;;;;;;;7.40;91.00;;;;;;5007085;28;19992;-61
2021/12/17 04:57:13;;;;;;;;;;;7.40;91.00;;;;;;5007676;28;19944;-61
2021/12/17 04:57:39;;;;;;;;;;;7.40;91.00;;;;;;5022291;28;19924;-61
2021/12/17 05:00:07;;;;;;;;;;;7.40;91.00;;;;;;5020568;28;19987;-61
2021/12/17 05:02:36;;;;;;;;;;;7.40;91.00;;;;;;5007047;28;19920;-61
2021/12/17 05:05:06;;;;;;;;;;;7.40;91.00;;;;;;5004546;28;20290;-61
2021/12/17 05:07:32;;;;;;;;;;;7.40;91.10;;;;;;5006039;28;19928;-61
2021/12/17 05:10:15;;;;;;;;;;;7.40;91.10;;;;;;5006286;28;20309;-61
2021/12/17 05:18:24;;;;;;;;;;;7.40;91.10;;;;;;5007475;28;19924;-61
2021/12/17 05:20:52;;;;;;;;;;;7.40;91.20;;;;;;5020330;28;19922;-61
2021/12/17 05:23:30;;;;;;;;;;;7.40;91.10;;;;;;5003792;28;19924;-61
2021/12/17 05:25:56;;;;;;;;;;;7.40;91.10;;;;;;5007333;28;19921;-61
2021/12/17 05:28:22;;;;;;;;;;;7.40;91.10;;;;;;5021656;28;19916;-61
2021/12/17 05:30:48;;;;;;;;;;;7.40;91.40;;;;;;5005454;28;19916;-61
2021/12/17 05:33:14;;;;;;;;;;;7.40;91.30;;;;;;5007415;28;20349;-61
2021/12/17 05:35:39;;;;;;;;;;;7.30;91.20;;;;;;5004973;28;19910;-61
2021/12/17 05:38:05;;;;;;;;;;;7.40;91.20;;;;;;5006936;28;20026;-61
2021/12/17 05:40:30;;;;;;;;;;;7.40;91.20;;;;;;5020605;28;20334;-61
2021/12/17 05:42:59;;;;;;;;;;;7.30;91.20;;;;;;5002913;28;19928;-61
2021/12/17 05:45:36;;;;;;;;;;;7.40;91.20;;;;;;5005503;28;20012;-61
2021/12/17 05:48:02;;;;;;;;;;;7.30;91.20;;;;;;4990334;28;19917;-61
2021/12/17 05:50:28;;;;;;;;;;;7.40;91.30;;;;;;5006621;28;19931;-61
2021/12/17 05:52:53;;;;;;;;;;;7.40;91.40;;;;;;5001736;28;20412;-61
2021/12/17 05:55:19;;;;;;;;;;;7.40;91.40;;;;;;5006232;28;19979;-61
2021/12/17 05:57:44;;;;;;;;;;;7.40;91.40;;;;;;5003815;28;20500;-61
2021/12/17 06:00:11;;;;;;;;;;;7.40;91.40;;;;;;5002370;28;19921;-61
2021/12/17 06:02:36;;;;;;;;;;;7.30;91.30;;;;;;5022912;28;19919;-61
2021/12/17 06:05:02;;;;;;;;;;;7.40;91.40;;;;;;5005407;28;20011;-61
2021/12/17 06:07:27;;;;;;;;;;;7.40;91.70;;;;;;4989001;28;19925;-61
2021/12/17 06:09:53;;;;;;;;;;;7.40;91.50;;;;;;5005754;28;19986;-61
2021/12/17 06:12:18;;;;;;;;;;;7.40;91.50;;;;;;5006406;28;20245;-61
2021/12/17 06:14:44;;;;;;;;;;;7.40;91.50;;;;;;5021241;28;20275;-61
2021/12/17 06:17:10;;;;;;;;;;;7.40;91.60;;;;;;5005385;28;19909;-61
2021/12/17 06:19:35;;;;;;;;;;;7.40;91.60;;;;;;5004575;28;19925;-61
2021/12/17 06:22:00;;;;;;;;;;;7.40;91.60;;;;;;5005558;28;19913;-61
2021/12/17 06:24:27;;;;;;;;;;;7.40;91.60;;;;;;5003162;28;19953;-61
2021/12/17 06:26:52;;;;;;;;;;;7.50;91.60;;;;;;5005256;28;19931;-61
2021/12/17 06:29:18;;;;;;;;;;;7.40;91.60;;;;;;5021674;28;19917;-61
2021/12/17 06:31:43;;;;;;;;;;;7.40;91.50;;;;;;5005227;28;20296;-61
2021/12/17 06:34:08;;;;;;;;;;;7.40;91.50;;;;;;4989402;28;19924;-61
2021/12/17 06:36:34;;;;;;;;;;;7.40;91.60;;;;;;5005643;28;19909;-61
2021/12/17 06:38:59;;;;;;;;;;;7.40;91.60;;;;;;5007542;28;20288;-61
2021/12/17 06:41:25;;;;;;;;;;;7.40;91.60;;;;;;5009170;28;19994;-61
2021/12/17 06:43:50;;;;;;;;;;;7.40;91.60;;;;;;5009861;28;20032;-61
2021/12/17 06:46:45;;;;;;;;;;;7.40;91.60;;;;;;5009053;28;20304;-61
2021/12/17 06:49:42;;;;;;;;;;;7.40;91.50;;;;;;4997232;28;19917;-61
2021/12/17 07:00:16;;;;;;;;;;;7.40;91.60;;;;;;5010484;28;20287;-61
2021/12/17 07:10:49;;;;;;;;;;;7.40;91.50;;;;;;5023632;28;19909;-61
2021/12/17 07:21:57;;;;;;;;;;;7.40;91.60;;;;;;5024373;28;19928;-61
2021/12/17 07:24:49;;;;;;;;;;;7.40;91.60;;;;;;4994981;28;20380;-61
2021/12/17 07:35:25;;;;;;;;;;;7.40;91.60;;;;;;5022483;28;19963;-61
2021/12/17 07:40:31;;;;;;;;;;;7.40;91.60;;;;;;5022754;28;19924;-61
2021/12/17 07:42:57;;;;;;;;;;;7.40;91.60;;;;;;5003566;28;19929;-61
2021/12/17 07:45:22;;;;;;;;;;;7.40;91.60;;;;;;5006458;28;20356;-61
2021/12/17 07:47:48;;;;;;;;;;;7.40;91.60;;;;;;5004620;28;20047;-61
2021/12/17 07:50:13;;;;;;;;;;;7.40;91.60;;;;;;5024805;28;19952;-61
2021/12/17 07:52:39;;;;;;;;;;;7.40;91.60;;;;;;5005941;28;19920;-61
2021/12/17 07:55:04;;;;;;;;;;;7.40;91.60;;;;;;5009620;28;19951;-61
2021/12/17 07:57:29;;;;;;;;;;;7.40;91.60;;;;;;5008399;28;19992;-61
2021/12/17 07:59:55;;;;;;;;;;;7.40;91.60;;;;;;5022285;28;20304;-61
2021/12/17 08:02:20;;;;;;;;;;;7.40;91.60;;;;;;5006423;28;20003;-61
2021/12/17 08:04:46;;;;;;;;;;;7.40;91.60;;;;;;5022961;28;20639;-61
2021/12/17 08:07:11;;;;;;;;;;;7.40;91.60;;;;;;4991479;28;19925;-61
2021/12/17 08:09:39;;;;;;;;;;;7.30;91.60;;;;;;5023670;28;19921;-62
2021/12/17 08:12:05;;;;;;;;;;;7.40;91.60;;;;;;5021846;28;19972;-61
2021/12/17 08:14:31;;;;;;;;;;;7.50;91.60;;;;;;5006420;28;19924;-61
2021/12/17 08:17:13;;;;;;;;;;;7.50;91.60;;;;;;5006663;28;19913;-61
2021/12/17 08:25:30;;;;;;;;;;;7.50;91.70;;;;;;4968712;28;19925;-61
2021/12/17 08:28:07;;;;;;;;;;;7.50;91.70;;;;;;4987059;28;20269;-61
2021/12/17 08:30:40;;;;;;;;;;;7.30;91.70;;;;;;4993563;28;19993;-61
2021/12/17 08:33:06;;;;;;;;;;;7.50;91.80;;;;;;5022544;28;19932;-61
2021/12/17 08:35:32;;;;;;;;;;;7.60;91.90;;;;;;5022942;28;19967;-61
2021/12/17 08:37:57;;;;;;;;;;;7.60;91.90;;;;;;4988935;28;19910;-61
2021/12/17 08:40:26;;;;;;;;;;;7.60;91.90;;;;;;5018688;28;19921;-61
2021/12/17 08:42:55;;;;;;;;;;;7.60;91.80;;;;;;4998338;28;20011;-61
2021/12/17 08:45:20;;;;;;;;;;;7.60;92.30;;;;;;5001724;28;19928;-61
2021/12/17 08:47:47;;;;;;;;;;;7.60;92.10;;;;;;5000911;28;19921;-61
2021/12/17 08:50:12;;;;;;;;;;;7.60;92.20;;;;;;4991937;28;19995;-61
2021/12/17 08:52:38;;;;;;;;;;;7.60;92.10;;;;;;5006847;28;20417;-61
2021/12/17 08:55:04;;;;;;;;;;;7.60;92.00;;;;;;5006027;28;19943;-62
2021/12/17 08:57:29;;;;;;;;;;;7.70;92.00;;;;;;4989831;28;19918;-61
2021/12/17 08:59:57;;;;;;;;;;;7.60;92.00;;;;;;5019075;28;19928;-61
2021/12/17 09:02:26;;;;;;;;;;;7.70;92.00;;;;;;5004180;28;19917;-61
2021/12/17 09:04:51;;;;;;;;;;;7.60;92.00;;;;;;5006580;28;20523;-61
2021/12/17 09:07:17;;;;;;;;;;;7.70;92.00;;;;;;5003959;28;19929;-61
2021/12/17 09:09:44;;;;;;;;;;;7.60;92.10;;;;;;5019431;28;19917;-61
2021/12/17 09:12:10;;;;;;;;;;;7.70;92.10;;;;;;4990679;28;19928;-61
2021/12/17 09:14:35;;;;;;;;;;;7.70;92.10;;;;;;5004584;28;19921;-61
2021/12/17 09:17:01;;;;;;;;;;;7.80;92.20;;;;;;4988878;28;19913;-61
2021/12/17 09:19:26;;;;;;;;;;;7.70;92.10;;;;;;5004520;28;19928;-61
2021/12/17 09:21:52;;;;;;;;;;;7.70;92.20;;;;;;5001141;28;19913;-61
2021/12/17 09:24:17;;;;;;;;;;;7.70;92.20;;;;;;5003764;28;19917;-61
2021/12/17 09:26:43;;;;;;;;;;;7.70;92.20;;;;;;4986642;28;19929;-61
2021/12/17 09:29:08;;;;;;;;;;;7.70;92.10;;;;;;4988649;28;19921;-61
2021/12/17 09:31:34;;;;;;;;;;;7.80;92.10;;;;;;5003326;28;20297;-61
2021/12/17 09:33:59;;;;;;;;;;;7.70;92.00;;;;;;5002396;28;19953;-61
2021/12/17 09:36:25;;;;;;;;;;;7.80;92.10;;;;;;5002372;28;19921;-61
2021/12/17 09:38:52;;;;;;;;;;;7.80;92.10;;;;;;5003269;28;20694;-61
2021/12/17 09:41:18;;;;;;;;;;;7.80;92.10;;;;;;5000491;28;20380;-60
2021/12/17 09:43:43;;;;;;;;;;;7.80;92.10;;;;;;5006828;28;19963;-61
2021/12/17 09:46:09;;;;;;;;;;;8.00;92.20;;;;;;5001763;28;20003;-61
2021/12/17 09:48:35;;;;;;;;;;;7.80;92.20;;;;;;5018483;28;19930;-61
2021/12/17 09:51:02;;;;;;;;;;;7.80;92.20;;;;;;4984786;28;19927;-60
2021/12/17 09:53:28;;;;;;;;;;;7.80;92.20;;;;;;5002754;28;19978;-61
2021/12/17 09:55:53;;;;;;;;;;;7.80;92.10;;;;;;5012317;28;19925;-61
2021/12/17 09:58:19;;;;;;;;;;;7.80;92.10;;;;;;4988881;28;19960;-61
2021/12/17 10:00:44;;;;;;;;;;;7.90;92.20;;;;;;5000468;28;19929;-61
2021/12/17 10:03:10;;;;;;;;;;;7.90;92.00;;;;;;4980357;28;19943;-61
2021/12/17 10:05:36;;;;;;;;;;;7.90;92.00;;;;;;5015031;28;19964;-61
2021/12/17 10:08:05;;;;;;;;;;;7.90;92.00;;;;;;5002059;28;20055;-61
2021/12/17 10:10:31;;;;;;;;;;;7.90;92.10;;;;;;5001302;28;19925;-61
2021/12/17 10:13:04;;;;;;;;;;;7.90;92.10;;;;;;5002962;28;20012;-61
2021/12/17 10:15:33;;;;;;;;;;;7.90;92.10;;;;;;5005801;28;19948;-61
2021/12/17 10:18:00;;;;;;;;;;;8.00;92.20;;;;;;5005814;28;19921;-61
2021/12/17 10:20:26;;;;;;;;;;;8.00;92.20;;;;;;4992263;28;19967;-61
2021/12/17 10:22:59;;;;;;;;;;;8.00;92.10;;;;;;5002724;28;19916;-61
2021/12/17 10:25:25;;;;;;;;;;;8.00;92.10;;;;;;5007996;28;20051;-61
2021/12/17 10:27:50;;;;;;;;;;;8.00;92.10;;;;;;5003312;28;20034;-61
2021/12/17 10:30:21;;;;;;;;;;;8.00;92.10;;;;;;4992094;28;19917;-61
2021/12/17 10:32:47;;;;;;;;;;;8.10;92.10;;;;;;5025113;28;19959;-61
2021/12/17 10:35:17;;;;;;;;;;;8.10;92.00;;;;;;5024461;28;20420;-61
2021/12/17 10:37:49;;;;;;;;;;;8.10;92.00;;;;;;5006152;28;19925;-61
2021/12/17 10:40:16;;;;;;;;;;;8.10;91.90;;;;;;5022952;28;20329;-61
2021/12/17 10:42:50;;;;;;;;;;;8.00;91.90;;;;;;5008792;28;19921;-61
2021/12/17 10:45:23;;;;;;;;;;;8.00;91.90;;;;;;4991650;28;19920;-61
2021/12/17 10:48:01;;;;;;;;;;;8.10;91.90;;;;;;5005162;28;19929;-61
2021/12/17 10:50:27;;;;;;;;;;;8.00;91.90;;;;;;5007549;28;19943;-61
2021/12/17 10:52:56;;;;;;;;;;;8.10;92.10;;;;;;5019632;28;19943;-61
2021/12/17 10:55:22;;;;;;;;;;;8.10;92.00;;;;;;4994930;28;19925;-61
2021/12/17 10:57:48;;;;;;;;;;;8.10;92.10;;;;;;5012110;28;20382;-61
2021/12/17 11:00:16;;;;;;;;;;;8.10;92.20;;;;;;5004586;28;19929;-61
2021/12/17 11:02:48;;;;;;;;;;;8.10;92.10;;;;;;5005813;28;19921;-61
2021/12/17 11:05:13;;;;;;;;;;;8.10;92.10;;;;;;5004595;28;19917;-61
2021/12/17 11:07:39;;;;;;;;;;;8.10;92.30;;;;;;4987224;28;19935;-61
2021/12/17 11:10:04;;;;;;;;;;;8.20;92.30;;;;;;5023488;28;20027;-61
2021/12/17 11:12:34;;;;;;;;;;;8.20;92.30;;;;;;4998541;28;20310;-61
2021/12/17 11:15:10;;;;;;;;;;;8.20;92.20;;;;;;5007262;28;19920;-61
2021/12/17 11:17:35;;;;;;;;;;;8.20;92.10;;;;;;5001624;28;20031;-62
2021/12/17 11:20:03;;;;;;;;;;;8.20;92.20;;;;;;4986935;28;20266;-62
2021/12/17 11:22:29;;;;;;;;;;;8.20;92.10;;;;;;4989041;28;20020;-61
2021/12/17 11:24:54;;;;;;;;;;;8.20;92.10;;;;;;4986120;28;20016;-61
2021/12/17 11:27:20;;;;;;;;;;;8.20;92.00;;;;;;5004750;28;19943;-61
2021/12/17 11:29:45;;;;;;;;;;;8.20;92.00;;;;;;5005375;28;19913;-66
2021/12/17 11:32:11;;;;;;;;;;;8.20;92.00;;;;;;5007877;28;20346;-62
2021/12/17 11:34:36;;;;;;;;;;;8.20;92.10;;;;;;4979389;28;20023;-62
2021/12/17 11:37:03;;;;;;;;;;;8.20;92.10;;;;;;5005831;28;20297;-61
2021/12/17 11:39:32;;;;;;;;;;;8.20;92.10;;;;;;5020785;28;19917;-61
2021/12/17 11:41:57;;;;;;;;;;;8.30;92.10;;;;;;5005038;28;20357;-61
2021/12/17 11:44:28;;;;;;;;;;;8.20;92.00;;;;;;5023034;28;19921;-62
2021/12/17 11:47:03;;;;;;;;;;;8.30;92.00;;;;;;4990417;28;20292;-61
2021/12/17 11:49:34;;;;;;;;;;;8.30;92.00;;;;;;5005880;28;19917;-62
2021/12/17 11:52:00;;;;;;;;;;;8.30;92.00;;;;;;5007113;28;19975;-61
2021/12/17 11:54:32;;;;;;;;;;;8.30;92.00;;;;;;4988237;28;19928;-61
2021/12/17 11:57:11;;;;;;;;;;;8.30;92.00;;;;;;5004428;28;20010;-61
2021/12/17 11:59:41;;;;;;;;;;;8.30;91.90;;;;;;5006205;28;19913;-62
2021/12/17 12:02:16;;;;;;;;;;;8.30;91.90;;;;;;4984549;28;20016;-61
2021/12/17 12:05:04;;;;;;;;;;;8.30;91.90;;;;;;4999653;28;19913;-61
2021/12/17 12:07:29;;;;;;;;;;;8.30;91.80;;;;;;4966938;28;19922;-61
2021/12/17 12:10:03;;;;;;;;;;;8.30;91.80;;;;;;5001036;28;19925;-61
2021/12/17 12:12:34;;;;;;;;;;;8.30;91.80;;;;;;4981422;28;20013;-62
2021/12/17 12:15:27;;;;;;;;;;;8.30;91.80;;;;;;4993283;28;20004;-61
2021/12/17 12:18:08;;;;;;;;;;;8.40;91.80;;;;;;5002681;28;19975;-61
2021/12/17 12:20:37;;;;;;;;;;;8.40;91.70;;;;;;4998074;28;20672;-62
2021/12/17 12:23:13;;;;;;;;;;;8.40;91.70;;;;;;4984808;28;20341;-61
2021/12/17 12:25:38;;;;;;;;;;;8.40;91.70;;;;;;4978736;28;20008;-61
2021/12/17 12:28:03;;;;;;;;;;;8.40;91.80;;;;;;4982761;28;19927;-61
2021/12/17 12:30:39;;;;;;;;;;;8.40;91.80;;;;;;4985178;28;19922;-61
2021/12/17 12:33:08;;;;;;;;;;;8.40;91.70;;;;;;4982688;28;19928;-62
2021/12/17 12:35:33;;;;;;;;;;;8.40;91.70;;;;;;4983220;28;19940;-61
2021/12/17 12:38:15;;;;;;;;;;;8.40;91.70;;;;;;4969784;28;19913;-62
2021/12/17 12:40:44;;;;;;;;;;;8.40;91.60;;;;;;4981881;28;19961;-62
2021/12/17 12:43:30;;;;;;;;;;;8.40;91.50;;;;;;4982457;28;19920;-62
2021/12/17 12:45:55;;;;;;;;;;;8.40;91.40;;;;;;4999346;28;19925;-61
2021/12/17 12:48:27;;;;;;;;;;;8.40;91.40;;;;;;5000287;28;19928;-61
2021/12/17 12:51:11;;;;;;;;;;;8.40;91.40;;;;;;4968013;28;19961;-61
2021/12/17 12:53:36;;;;;;;;;;;8.40;91.40;;;;;;4983337;28;19921;-63
2021/12/17 12:56:02;;;;;;;;;;;8.40;91.40;;;;;;4970168;28;19916;-61
2021/12/17 12:58:28;;;;;;;;;;;8.40;91.30;;;;;;4967228;28;20113;-61
2021/12/17 13:00:56;;;;;;;;;;;8.40;91.30;;;;;;4991883;28;20069;-62
2021/12/17 13:03:26;;;;;;;;;;;8.40;91.30;;;;;;4988329;28;19921;-62
2021/12/17 13:05:51;;;;;;;;;;;8.40;91.30;;;;;;5004745;28;20644;-61
2021/12/17 13:08:17;;;;;;;;;;;8.40;91.30;;;;;;4987780;28;19967;-61
2021/12/17 13:10:44;;;;;;;;;;;8.40;91.30;;;;;;5004595;28;19920;-61
2021/12/17 13:13:17;;;;;;;;;;;8.40;91.30;;;;;;4984477;28;20045;-62
2021/12/17 13:15:49;;;;;;;;;;;8.40;91.30;;;;;;4998792;28;20147;-61
2021/12/17 13:21:20;;;;;;;;;;;8.50;91.30;;;;;;5004580;28;19924;-61
2021/12/17 13:23:50;;;;;;;;;;;8.50;91.30;;;;;;5002150;28;19917;-60
2021/12/17 13:26:15;;;;;;;;;;;8.50;91.30;;;;;;5005244;28;19917;-61
2021/12/17 13:28:49;;;;;;;;;;;8.50;91.60;;;;;;5000856;28;20392;-60
2021/12/17 13:31:29;;;;;;;;;;;8.60;91.20;;;;;;5002946;28;19922;-60
2021/12/17 13:33:55;;;;;;;;;;;8.60;91.20;;;;;;5012963;28;19992;-60
2021/12/17 13:36:20;;;;;;;;;;;8.60;91.30;;;;;;5018030;28;20735;-61
2021/12/17 13:38:46;;;;;;;;;;;8.60;91.50;;;;;;5016769;28;20323;-61
2021/12/17 13:41:12;;;;;;;;;;;8.60;91.20;;;;;;5002920;28;19996;-61
2021/12/17 13:43:41;;;;;;;;;;;8.60;91.20;;;;;;5018349;28;19967;-60
2021/12/17 13:46:06;;;;;;;;;;;8.70;91.20;;;;;;4986856;28;19960;-60
2021/12/17 13:48:32;;;;;;;;;;;8.70;91.40;;;;;;5007394;28;19918;-61
2021/12/17 13:50:57;;;;;;;;;;;8.70;91.30;;;;;;4999909;28;20472;-60
2021/12/17 13:53:23;;;;;;;;;;;8.70;91.40;;;;;;5024441;28;19917;-60
2021/12/17 13:55:48;;;;;;;;;;;8.70;91.30;;;;;;5008872;28;20352;-60
2021/12/17 13:58:15;;;;;;;;;;;8.70;91.30;;;;;;5003804;28;19924;-60
2021/12/17 14:00:42;;;;;;;;;;;8.70;91.30;;;;;;5000572;28;19925;-60
2021/12/17 14:03:09;;;;;;;;;;;9.00;91.50;;;;;;4997110;28;20377;-60
2021/12/17 14:05:41;;;;;;;;;;;8.70;91.30;;;;;;5019003;28;20047;-60
2021/12/17 14:08:10;;;;;;;;;;;8.70;91.40;;;;;;5014304;28;19947;-60
2021/12/17 14:10:36;;;;;;;;;;;8.80;91.40;;;;;;5012152;28;19917;-61
2021/12/17 14:13:02;;;;;;;;;;;8.80;91.50;;;;;;5011302;28;19924;-59
2021/12/17 14:15:28;;;;;;;;;;;8.90;91.50;;;;;;5002761;28;19920;-60
2021/12/17 14:17:55;;;;;;;;;;;8.80;91.50;;;;;;5019579;28;20207;-60
2021/12/17 14:20:27;;;;;;;;;;;8.80;91.50;;;;;;5027397;28;20403;-62
2021/12/17 14:22:56;;;;;;;;;;;8.80;91.30;;;;;;5007621;28;19945;-61
2021/12/17 14:25:22;;;;;;;;;;;8.80;91.40;;;;;;5008485;28;19913;-63
2021/12/17 14:27:48;;;;;;;;;;;8.90;91.40;;;;;;5019209;28;19923;-61
2021/12/17 14:30:14;;;;;;;;;;;8.80;91.40;;;;;;5022807;28;19921;-60
2021/12/17 14:32:43;;;;;;;;;;;8.90;91.50;;;;;;5017281;28;20006;-60
2021/12/17 14:35:09;;;;;;;;;;;8.90;91.50;;;;;;5004374;28;20249;-60
2021/12/17 14:37:46;;;;;;;;;;;8.90;91.50;;;;;;5006156;28;20451;-60
2021/12/17 14:40:33;;;;;;;;;;;8.90;91.50;;;;;;5019394;28;19925;-61
2021/12/17 14:42:58;;;;;;;;;;;8.90;91.50;;;;;;5003683;28;20404;-60
2021/12/17 14:45:39;;;;;;;;;;;8.90;91.50;;;;;;4990257;28;19921;-60
2021/12/17 14:48:20;;;;;;;;;;;8.90;91.60;;;;;;5001370;28;19952;-61
2021/12/17 15:01:42;;;;;;;;;;;9.00;91.40;;;;;;5011054;28;19921;-60
2021/12/17 15:04:08;;;;;;;;;;;9.00;91.40;;;;;;5007093;28;19921;-61
2021/12/17 15:06:34;;;;;;;;;;;8.90;91.50;;;;;;5003945;28;19925;-60
2021/12/17 15:09:01;;;;;;;;;;;9.00;91.50;;;;;;5002133;28;19913;-60
2021/12/17 15:11:37;;;;;;;;;;;9.00;91.60;;;;;;4992674;28;19960;-60
2021/12/17 15:14:02;;;;;;;;;;;8.90;91.60;;;;;;5001055;28;20067;-60
2021/12/17 15:16:28;;;;;;;;;;;9.00;91.70;;;;;;4994029;28;20364;-61
2021/12/17 15:18:53;;;;;;;;;;;9.00;91.60;;;;;;5012616;28;20155;-60
2021/12/17 15:21:19;;;;;;;;;;;9.00;91.70;;;;;;5017264;28;20301;-60
2021/12/17 15:23:44;;;;;;;;;;;9.00;91.70;;;;;;5023029;28;19929;-60
2021/12/17 15:26:09;;;;;;;;;;;9.00;91.70;;;;;;5004131;28;19947;-61
2021/12/17 15:28:35;;;;;;;;;;;9.00;91.70;;;;;;5015064;28;20043;-61
2021/12/17 15:31:02;;;;;;;;;;;9.00;91.70;;;;;;5018652;28;20292;-61
2021/12/17 15:33:28;;;;;;;;;;;9.00;91.70;;;;;;5020771;28;19922;-62
2021/12/17 15:35:53;;;;;;;;;;;9.10;91.80;;;;;;4998826;28;19913;-61
2021/12/17 15:38:19;;;;;;;;;;;9.00;91.80;;;;;;5004326;28;19971;-61
2021/12/17 15:40:46;;;;;;;;;;;9.10;91.80;;;;;;5014740;28;19933;-61
2021/12/17 15:43:11;;;;;;;;;;;9.00;91.80;;;;;;5017674;28;19913;-60
2021/12/17 15:45:38;;;;;;;;;;;9.10;91.80;;;;;;5022510;28;19913;-61
2021/12/17 15:48:04;;;;;;;;;;;9.00;91.70;;;;;;5002172;28;19914;-61
2021/12/17 15:50:29;;;;;;;;;;;9.00;91.80;;;;;;4996707;28;19917;-61
2021/12/17 15:52:54;;;;;;;;;;;9.00;91.90;;;;;;5013739;28;19924;-61
2021/12/17 15:55:22;;;;;;;;;;;9.10;91.80;;;;;;4999904;28;20379;-61
2021/12/17 15:57:47;;;;;;;;;;;9.10;91.80;;;;;;5015606;28;19921;-61
2021/12/17 16:00:13;;;;;;;;;;;9.10;91.70;;;;;;5010295;28;20380;-61
2021/12/17 16:02:42;;;;;;;;;;;9.10;91.80;;;;;;5006989;28;19936;-62
2021/12/17 16:05:08;;;;;;;;;;;9.10;91.70;;;;;;5004140;28;21673;-61
2021/12/17 16:07:34;;;;;;;;;;;9.10;91.60;;;;;;5003294;28;20269;-61
2021/12/17 16:23:07;;;;;;;;;;;9.10;91.60;;;;;;5011873;28;19971;-61
2021/12/17 16:25:32;;;;;;;;;;;9.10;91.50;;;;;;4991499;28;19913;-61
2021/12/17 16:27:58;;;;;;;;;;;9.10;91.50;;;;;;4991018;28;19931;-61
2021/12/17 16:30:24;;;;;;;;;;;9.20;91.60;;;;;;4993372;28;19964;-61
2021/12/17 16:32:50;;;;;;;;;;;9.20;91.50;;;;;;4993838;28;19983;-61
2021/12/17 16:35:15;;;;;;;;;;;9.20;91.50;;;;;;4991888;28;20012;-61
2021/12/17 16:37:40;;;;;;;;;;;9.10;91.40;;;;;;4999119;28;19917;-61
2021/12/17 16:40:06;;;;;;;;;;;9.10;91.40;;;;;;5014802;28;19925;-61
2021/12/17 16:42:32;;;;;;;;;;;9.10;91.40;;;;;;5003081;28;19921;-61
2021/12/17 16:47:30;;;;;;;;;;;9.10;91.40;;;;;;5002078;28;19955;-60
2021/12/17 16:49:56;;;;;;;;;;;9.10;91.40;;;;;;5002415;28;20054;-60
2021/12/17 16:52:25;;;;;;;;;;;9.10;91.50;;;;;;5008307;28;19913;-60
2021/12/17 16:54:50;;;;;;;;;;;9.10;91.50;;;;;;4990431;28;19945;-60
2021/12/17 16:57:15;;;;;;;;;;;9.10;91.50;;;;;;5006510;28;20052;-60
2021/12/17 16:59:41;;;;;;;;;;;9.10;91.50;;;;;;4985702;28;19924;-62
2021/12/17 17:02:06;;;;;;;;;;;9.10;91.50;;;;;;5003364;28;19932;-61
2021/12/17 17:04:32;;;;;;;;;;;9.10;91.50;;;;;;5017216;28;19976;-60
2021/12/17 17:06:57;;;;;;;;;;;9.10;91.80;;;;;;5020542;28;19932;-60
2021/12/17 17:09:25;;;;;;;;;;;9.10;91.50;;;;;;5000882;28;20336;-60
2021/12/17 17:11:58;;;;;;;;;;;9.10;91.50;;;;;;5002697;28;20166;-60
2021/12/17 17:14:24;;;;;;;;;;;9.10;91.50;;;;;;4993515;28;19921;-60
2021/12/17 17:16:50;;;;;;;;;;;9.20;91.50;;;;;;4998674;28;20300;-60
2021/12/17 17:19:15;;;;;;;;;;;9.20;91.40;;;;;;5006463;28;19974;-60
2021/12/17 17:21:41;;;;;;;;;;;9.10;91.40;;;;;;4987940;28;19922;-60
2021/12/17 17:24:08;;;;;;;;;;;9.10;91.50;;;;;;5003644;28;19925;-60
2021/12/17 17:26:34;;;;;;;;;;;9.10;91.50;;;;;;5002637;28;19928;-60
2021/12/17 17:28:59;;;;;;;;;;;9.10;91.80;;;;;;4999906;28;19917;-61